createdAt,value
2023-02-21T00:02:18.815Z,52.47
2023-02-21T00:05:05.843Z,49.67
2023-02-21T00:07:53.102Z,48.95
2023-02-21T00:10:40.372Z,67.05
2023-02-21T00:13:27.126Z,44.20
2023-02-21T00:16:14.783Z,47.85
2023-02-21T00:19:01.665Z,42.45
2023-02-21T00:21:49.293Z,47.25
2023-02-21T00:24:38.044Z,59.42
2023-02-21T00:27:25.043Z,48.63
2023-02-21T00:30:11.891Z,54.72
2023-02-21T00:32:59.318Z,40.13
2023-02-21T00:35:46.360Z,42.58
2023-02-21T00:38:33.285Z,38.15
2023-02-21T00:41:19.643Z,42.83
2023-02-21T00:44:06.369Z,41.92
2023-02-21T00:46:54.585Z,43.33
2023-02-21T00:49:41.261Z,46.83
2023-02-21T00:52:28.045Z,39.63
2023-02-21T00:55:14.722Z,81.65
2023-02-21T00:58:01.236Z,48.28
2023-02-21T01:00:48.635Z,52.47
2023-02-21T01:03:35.561Z,89.65
2023-02-21T01:06:22.322Z,105.25
2023-02-21T01:09:08.745Z,38.38
2023-02-21T01:11:55.481Z,36.22
2023-02-21T01:14:42.175Z,36.00
2023-02-21T01:17:29.503Z,39.90
2023-02-21T01:20:16.110Z,31.15
2023-02-21T01:23:04.648Z,39.83
2023-02-21T01:25:52.108Z,49.65
2023-02-21T01:28:38.537Z,46.10
2023-02-21T01:31:25.749Z,37.33
2023-02-21T01:34:12.699Z,51.70
2023-02-21T01:37:00.661Z,37.47
2023-02-21T01:39:47.173Z,34.55
2023-02-21T01:42:34.855Z,37.95
2023-02-21T01:45:41.468Z,39.42
2023-02-21T01:48:32.905Z,37.40
2023-02-21T01:51:21.039Z,42.83
2023-02-21T01:54:08.567Z,36.35
2023-02-21T01:56:57.202Z,35.30
2023-02-21T01:59:45.194Z,39.38
2023-02-21T02:02:54.043Z,38.38
2023-02-21T02:05:41.034Z,36.58
2023-02-21T02:08:27.753Z,37.33
2023-02-21T02:11:29.069Z,39.85
2023-02-21T02:14:37.447Z,41.63
2023-02-21T02:17:32.772Z,42.45
2023-02-21T02:20:38.592Z,45.55
2023-02-21T02:23:30.354Z,45.15
2023-02-21T02:26:32.472Z,47.78
2023-02-21T02:29:26.655Z,52.78
2023-02-21T02:32:13.146Z,48.97
2023-02-21T02:34:53.783Z,45.50
2023-02-21T02:37:37.330Z,44.75
2023-02-21T02:40:23.864Z,41.00
2023-02-21T02:42:54.639Z,47.33
2023-02-21T02:45:36.106Z,38.05
2023-02-21T02:48:21.677Z,35.28
2023-02-21T02:50:52.309Z,34.22
2023-02-21T02:53:25.899Z,37.97
2023-02-21T02:56:02.860Z,37.42
2023-02-21T02:59:14.212Z,37.60
2023-02-21T03:01:58.078Z,59.20
2023-02-21T03:07:09.093Z,42.35
2023-02-21T03:10:07.701Z,36.95
2023-02-21T03:12:45.232Z,40.45
2023-02-21T03:15:21.911Z,41.45
2023-02-21T03:17:57.632Z,37.45
2023-02-21T03:20:27.517Z,34.15
2023-02-21T03:22:57.994Z,36.80
2023-02-21T03:25:29.934Z,36.05
2023-02-21T03:28:02.185Z,35.42
2023-02-21T03:30:37.911Z,33.88
2023-02-21T03:33:06.902Z,37.03
2023-02-21T03:35:36.256Z,36.65
2023-02-21T03:38:05.198Z,38.00
2023-02-21T03:40:34.689Z,42.05
2023-02-21T03:43:07.481Z,36.10
2023-02-21T03:45:44.180Z,43.97
2023-02-21T03:48:26.089Z,41.95
2023-02-21T03:51:02.688Z,34.67
2023-02-21T03:53:36.590Z,37.10
2023-02-21T03:56:06.009Z,41.10
2023-02-21T04:01:18.304Z,42.63
2023-02-21T04:03:47.268Z,49.15
2023-02-21T04:06:15.942Z,47.17
2023-02-21T04:08:44.911Z,45.95
2023-02-21T04:11:13.170Z,42.03
2023-02-21T04:13:43.560Z,45.88
2023-02-21T04:16:11.984Z,44.58
2023-02-21T04:18:40.494Z,58.67
2023-02-21T04:21:10.719Z,52.15
2023-02-21T04:23:39.190Z,59.33
2023-02-21T04:26:08.461Z,53.67
2023-02-21T04:28:45.031Z,50.42
2023-02-21T04:31:16.842Z,47.35
2023-02-21T04:33:46.018Z,47.65
2023-02-21T04:36:18.972Z,50.95
2023-02-21T04:38:47.084Z,56.00
2023-02-21T04:41:15.868Z,48.53
2023-02-21T04:43:45.264Z,52.63
2023-02-21T04:46:16.550Z,51.78
2023-02-21T04:48:47.356Z,51.10
2023-02-21T04:51:18.091Z,44.92
2023-02-21T04:53:48.481Z,46.85
2023-02-21T04:56:21.256Z,46.45
2023-02-21T04:58:49.919Z,49.15
2023-02-21T05:01:19.726Z,51.92
2023-02-21T05:03:48.883Z,53.88
2023-02-21T05:06:24.369Z,48.17
2023-02-21T05:08:53.014Z,48.45
2023-02-21T05:11:21.958Z,52.45
2023-02-21T05:13:51.425Z,45.33
2023-02-21T05:16:20.765Z,50.60
2023-02-21T05:18:49.587Z,49.38
2023-02-21T05:21:19.393Z,49.08
2023-02-21T05:23:56.924Z,47.33
2023-02-21T05:26:30.348Z,45.83
2023-02-21T05:31:27.161Z,58.17
2023-02-21T05:33:56.424Z,61.20
2023-02-21T05:36:25.541Z,50.70
2023-02-21T05:38:56.111Z,50.92
2023-02-21T05:41:24.713Z,48.53
2023-02-21T05:43:53.144Z,50.40
2023-02-21T05:46:24.281Z,52.13
2023-02-21T05:48:53.590Z,83.18
2023-02-21T05:51:22.113Z,112.38
2023-02-21T05:53:51.066Z,57.53
2023-02-21T05:56:20.328Z,60.10
2023-02-21T05:58:49.342Z,65.53
2023-02-21T06:01:18.499Z,61.83
2023-02-21T06:03:47.113Z,55.95
2023-02-21T06:06:16.461Z,55.10
2023-02-21T06:08:49.216Z,46.08
2023-02-21T06:11:24.742Z,37.63
2023-02-21T06:13:56.694Z,49.50
2023-02-21T06:16:25.687Z,51.10
2023-02-21T06:18:55.335Z,57.58
2023-02-21T06:21:23.761Z,55.25
2023-02-21T06:23:51.756Z,52.92
2023-02-21T06:26:20.562Z,51.22
2023-02-21T06:28:49.187Z,56.20
2023-02-21T06:31:19.040Z,57.45
2023-02-21T06:33:48.515Z,54.13
2023-02-21T06:36:20.150Z,54.92
2023-02-21T06:38:51.465Z,56.35
2023-02-21T06:41:26.456Z,53.38
2023-02-21T06:43:55.374Z,51.70
2023-02-21T06:46:26.302Z,47.63
2023-02-21T06:48:54.488Z,43.90
2023-02-21T06:51:29.759Z,42.90
2023-02-21T06:53:58.859Z,44.58
2023-02-21T06:56:27.391Z,45.25
2023-02-21T06:58:55.483Z,43.38
2023-02-21T07:01:26.530Z,47.88
2023-02-21T07:03:55.763Z,41.35
2023-02-21T07:06:24.836Z,39.38
2023-02-21T07:08:52.921Z,40.33
2023-02-21T07:11:21.464Z,44.65
2023-02-21T07:13:51.696Z,42.35
2023-02-21T07:16:21.141Z,42.22
2023-02-21T07:18:49.249Z,44.88
2023-02-21T07:21:18.585Z,78.03
2023-02-21T07:23:47.558Z,47.25
2023-02-21T07:26:16.575Z,49.17
2023-02-21T07:28:48.503Z,57.92
2023-02-21T07:31:19.519Z,45.58
2023-02-21T07:33:48.897Z,45.85
2023-02-21T07:36:17.756Z,45.03
2023-02-21T07:38:46.315Z,47.85
2023-02-21T07:41:15.703Z,42.95
2023-02-21T07:43:44.136Z,41.58
2023-02-21T07:46:17.843Z,46.05
2023-02-21T07:48:46.545Z,41.28
2023-02-21T07:51:14.945Z,38.20
2023-02-21T07:53:43.205Z,44.97
2023-02-21T07:56:12.411Z,41.22
2023-02-21T07:58:41.072Z,41.67
2023-02-21T08:01:09.540Z,41.38
2023-02-21T08:03:38.088Z,39.58
2023-02-21T08:06:08.382Z,46.33
2023-02-21T08:08:36.433Z,43.67
2023-02-21T08:11:04.587Z,44.38
2023-02-21T08:13:33.378Z,51.50
2023-02-21T08:16:01.980Z,43.55
2023-02-21T08:18:30.584Z,35.70
2023-02-21T08:20:58.648Z,35.05
2023-02-21T08:23:27.113Z,37.85
2023-02-21T08:25:55.056Z,36.70
2023-02-21T08:28:23.074Z,37.65
2023-02-21T08:30:51.533Z,36.50
2023-02-21T08:33:19.860Z,38.42
2023-02-21T08:35:47.955Z,36.88
2023-02-21T08:38:16.199Z,33.83
2023-02-21T08:40:45.465Z,35.17
2023-02-21T08:43:13.805Z,34.50
2023-02-21T08:45:42.303Z,41.45
2023-02-21T08:48:10.373Z,43.17
2023-02-21T08:50:38.739Z,46.40
2023-02-21T08:53:07.167Z,48.50
2023-02-21T08:55:35.278Z,54.92
2023-02-21T08:58:03.643Z,56.03
2023-02-21T09:00:32.541Z,53.17
2023-02-21T09:03:00.550Z,58.13
2023-02-21T09:05:31.725Z,56.83
2023-02-21T09:08:02.147Z,55.58
2023-02-21T09:10:35.648Z,58.78
2023-02-21T09:15:32.492Z,60.53
2023-02-21T09:18:01.096Z,58.65
2023-02-21T09:20:29.454Z,61.30
2023-02-21T09:22:58.018Z,57.13
2023-02-21T09:25:26.392Z,52.50
2023-02-21T09:27:55.136Z,54.05
2023-02-21T09:30:27.666Z,62.58
2023-02-21T09:32:59.984Z,58.17
2023-02-21T09:35:31.043Z,62.38
2023-02-21T09:38:00.612Z,64.55
2023-02-21T09:40:50.965Z,60.05
2023-02-21T09:43:21.570Z,57.22
2023-02-21T09:45:53.818Z,56.85
2023-02-21T09:48:24.687Z,59.55
2023-02-21T09:50:57.429Z,60.47
2023-02-21T09:53:30.508Z,58.15
2023-02-21T09:56:06.538Z,54.90
2023-02-21T09:58:39.331Z,52.40
2023-02-21T10:01:21.060Z,55.72
2023-02-21T10:04:07.947Z,63.55
2023-02-21T10:06:36.009Z,64.45
2023-02-21T10:09:08.985Z,63.42
2023-02-21T10:11:58.331Z,56.65
2023-02-21T10:14:54.523Z,60.35
2023-02-21T10:17:47.600Z,58.45
2023-02-21T10:20:32.566Z,55.58
2023-02-21T10:23:03.878Z,59.03
2023-02-21T10:25:36.945Z,59.88
2023-02-21T10:28:05.441Z,64.80
2023-02-21T10:30:40.997Z,73.40
2023-02-21T10:33:09.564Z,70.68
2023-02-21T10:35:39.297Z,64.25
2023-02-21T10:38:27.644Z,69.22
2023-02-21T10:41:02.579Z,64.43
2023-02-21T10:43:52.101Z,67.63
2023-02-21T10:46:37.225Z,69.63
2023-02-21T10:49:44.175Z,81.70
2023-02-21T10:52:17.580Z,61.47
2023-02-21T10:55:20.031Z,72.68
2023-02-21T10:57:57.574Z,57.45
2023-02-21T11:00:48.701Z,59.70
2023-02-21T11:03:19.771Z,58.92
2023-02-21T11:05:58.525Z,63.55
2023-02-21T11:08:41.616Z,63.70
2023-02-21T11:11:11.393Z,67.60
2023-02-21T11:13:40.146Z,66.93
2023-02-21T11:16:22.427Z,64.93
2023-02-21T11:19:06.602Z,74.55
2023-02-21T11:21:35.330Z,70.53
2023-02-21T11:24:06.720Z,69.00
2023-02-21T11:26:51.195Z,70.88
2023-02-21T11:29:24.948Z,68.05
2023-02-21T11:31:56.745Z,68.65
2023-02-21T11:34:29.831Z,63.92
2023-02-21T11:39:34.234Z,54.78
2023-02-21T11:42:23.661Z,55.33
2023-02-21T11:45:13.924Z,43.40
2023-02-21T11:47:50.945Z,33.03
2023-02-21T11:50:24.947Z,29.17
2023-02-21T11:53:14.750Z,32.03
2023-02-21T11:56:07.444Z,29.10
2023-02-21T11:58:45.378Z,36.17
2023-02-21T12:01:18.921Z,39.45
2023-02-21T12:04:11.092Z,40.83
2023-02-21T12:06:54.243Z,38.95
2023-02-21T12:09:53.195Z,33.30
2023-02-21T12:12:30.487Z,30.98
2023-02-21T12:15:04.643Z,28.52
2023-02-21T12:18:10.280Z,31.00
2023-02-21T12:21:03.728Z,31.23
2023-02-21T12:23:52.969Z,31.80
2023-02-21T12:26:34.771Z,28.00
2023-02-21T12:29:32.157Z,32.95
2023-02-21T12:32:27.483Z,29.38
2023-02-21T12:35:08.929Z,31.10
2023-02-21T12:38:23.637Z,30.65
2023-02-21T12:41:16.509Z,35.05
2023-02-21T12:44:02.219Z,29.48
2023-02-21T12:46:35.892Z,33.85
2023-02-21T12:49:19.549Z,30.80
2023-02-21T12:52:08.353Z,32.47
2023-02-21T12:55:00.809Z,30.75
2023-02-21T12:57:47.097Z,30.00
2023-02-21T13:00:36.523Z,35.15
2023-02-21T13:03:42.465Z,32.20
2023-02-21T13:06:31.426Z,31.92
2023-02-21T13:09:18.525Z,32.70
2023-02-21T13:11:55.449Z,38.58
2023-02-21T13:14:34.396Z,36.45
2023-02-21T13:17:02.482Z,37.58
2023-02-21T13:20:06.263Z,36.67
2023-02-21T13:23:11.308Z,36.53
2023-02-21T13:26:16.327Z,37.70
2023-02-21T13:28:55.264Z,41.22
2023-02-21T13:31:37.328Z,35.38
2023-02-21T13:34:11.682Z,38.00
2023-02-21T13:36:42.265Z,39.13
2023-02-21T13:39:18.712Z,36.17
2023-02-21T13:42:22.062Z,38.60
2023-02-21T13:44:55.684Z,35.30
2023-02-21T13:47:24.715Z,39.88
2023-02-21T13:49:57.743Z,44.10
2023-02-21T13:52:28.377Z,40.42
2023-02-21T13:55:19.851Z,37.53
2023-02-21T13:58:12.996Z,46.42
2023-02-21T14:00:41.425Z,43.20
2023-02-21T14:03:18.342Z,45.17
2023-02-21T14:05:52.930Z,44.47
2023-02-21T14:08:58.682Z,41.85
2023-02-21T14:11:34.402Z,43.88
2023-02-21T14:14:24.652Z,43.47
2023-02-21T14:17:00.524Z,44.95
2023-02-21T14:19:42.919Z,51.65
2023-02-21T14:22:24.230Z,52.17
2023-02-21T14:25:04.771Z,47.33
2023-02-21T14:27:35.252Z,46.92
2023-02-21T14:30:09.518Z,46.78
2023-02-21T14:32:50.560Z,48.45
2023-02-21T14:35:45.650Z,43.70
2023-02-21T14:38:23.478Z,45.65
2023-02-21T14:41:01.991Z,46.42
2023-02-21T14:43:51.454Z,49.63
2023-02-21T14:46:36.920Z,49.80
2023-02-21T14:49:25.679Z,51.90
2023-02-21T14:52:22.539Z,45.22
2023-02-21T14:55:00.679Z,43.20
2023-02-21T14:57:59.350Z,46.53
2023-02-21T15:00:56.583Z,43.33
2023-02-21T15:03:30.882Z,68.68
2023-02-21T15:06:18.450Z,59.42
2023-02-21T15:08:52.016Z,43.05
2023-02-21T15:11:29.443Z,41.70
2023-02-21T15:14:22.805Z,43.13
2023-02-21T15:16:59.466Z,46.47
2023-02-21T15:19:33.279Z,50.03
2023-02-21T15:22:16.915Z,44.75
2023-02-21T15:25:11.054Z,44.45
2023-02-21T15:27:50.917Z,64.10
2023-02-21T15:30:19.785Z,48.65
2023-02-21T15:33:18.207Z,53.88
2023-02-21T15:36:03.811Z,67.32
2023-02-21T15:38:44.801Z,59.47
2023-02-21T15:41:46.013Z,52.55
2023-02-21T15:44:31.726Z,47.83
2023-02-21T15:47:24.876Z,51.30
2023-02-21T15:50:05.659Z,54.55
2023-02-21T15:52:36.301Z,61.58
2023-02-21T15:55:34.056Z,54.08
2023-02-21T15:58:07.548Z,53.58
2023-02-21T16:00:39.927Z,55.92
2023-02-21T16:03:33.497Z,54.43
2023-02-21T16:06:28.102Z,58.13
2023-02-21T16:09:08.532Z,65.07
2023-02-21T16:11:46.085Z,58.28
2023-02-21T16:14:22.235Z,54.75
2023-02-21T16:16:56.368Z,65.07
2023-02-21T16:19:24.944Z,60.72
2023-02-21T16:22:29.296Z,76.00
2023-02-21T16:25:06.491Z,82.75
2023-02-21T16:27:35.262Z,83.45
2023-02-21T16:30:05.434Z,77.15
2023-02-21T16:32:35.856Z,75.03
2023-02-21T16:35:03.879Z,79.05
2023-02-21T16:37:32.939Z,74.72
2023-02-21T16:40:01.532Z,75.32
2023-02-21T16:42:31.342Z,77.57
2023-02-21T16:44:59.678Z,84.32
2023-02-21T16:47:27.806Z,76.30
2023-02-21T16:49:56.652Z,81.00
2023-02-21T16:52:24.646Z,74.70
2023-02-21T16:54:52.861Z,76.95
2023-02-21T16:57:21.181Z,84.20
2023-02-21T16:59:49.904Z,79.88
2023-02-21T17:02:18.440Z,78.75
2023-02-21T17:04:46.882Z,86.35
2023-02-21T17:07:16.202Z,100.63
2023-02-21T17:09:44.737Z,98.63
2023-02-21T17:12:13.611Z,96.82
2023-02-21T17:14:42.333Z,98.70
2023-02-21T17:17:10.355Z,101.90
2023-02-21T17:19:38.861Z,103.60
2023-02-21T17:22:07.427Z,106.07
2023-02-21T17:24:36.673Z,97.88
2023-02-21T17:27:05.831Z,91.15
2023-02-21T17:29:33.911Z,92.32
2023-02-21T17:32:07.153Z,107.43
2023-02-21T17:37:04.996Z,151.35
2023-02-21T17:39:32.981Z,125.20
2023-02-21T17:42:00.920Z,108.57
2023-02-21T17:44:29.422Z,121.68
2023-02-21T17:46:58.185Z,135.13
2023-02-21T17:49:28.113Z,124.00
2023-02-21T17:51:56.649Z,129.00
2023-02-21T17:54:25.906Z,143.40
2023-02-21T17:56:54.041Z,113.82
2023-02-21T17:59:22.851Z,112.45
2023-02-21T18:01:55.233Z,107.75
2023-02-21T18:04:24.839Z,115.30
2023-02-21T18:06:53.439Z,125.50
2023-02-21T18:09:21.891Z,127.10
2023-02-21T18:11:51.631Z,114.95
2023-02-21T18:14:21.039Z,119.75
2023-02-21T18:16:49.153Z,113.95
2023-02-21T18:19:42.382Z,115.22
2023-02-21T18:22:11.292Z,129.00
2023-02-21T18:24:41.010Z,120.00
2023-02-21T18:27:10.846Z,127.47
2023-02-21T18:29:38.824Z,136.75
2023-02-21T18:32:07.853Z,136.40
2023-02-21T18:34:36.091Z,151.43
2023-02-21T18:37:04.807Z,113.63
2023-02-21T18:39:33.516Z,106.85
2023-02-21T18:42:01.838Z,104.93
2023-02-21T18:44:31.630Z,115.95
2023-02-21T18:47:01.545Z,134.98
2023-02-21T18:49:34.237Z,113.65
2023-02-21T18:52:07.395Z,91.07
2023-02-21T18:54:36.390Z,76.25
2023-02-21T18:57:04.684Z,66.35
2023-02-21T18:59:35.027Z,71.85
2023-02-21T19:02:03.396Z,65.75
2023-02-21T19:04:32.559Z,70.60
2023-02-21T19:07:07.342Z,87.50
2023-02-21T19:09:36.543Z,76.25
2023-02-21T19:12:07.850Z,72.82
2023-02-21T19:14:37.793Z,72.40
2023-02-21T19:17:08.048Z,74.95
2023-02-21T19:19:37.433Z,79.78
2023-02-21T19:22:06.087Z,73.57
2023-02-21T19:24:34.251Z,72.63
2023-02-21T19:27:02.592Z,71.43
2023-02-21T19:29:30.868Z,80.22
2023-02-21T19:31:58.998Z,79.63
2023-02-21T19:34:27.289Z,102.03
2023-02-21T19:36:57.084Z,116.22
2023-02-21T19:39:26.047Z,139.40
2023-02-21T19:41:55.007Z,117.13
2023-02-21T19:44:23.627Z,130.07
2023-02-21T19:46:51.625Z,106.25
2023-02-21T19:49:21.998Z,75.43
2023-02-21T19:51:51.708Z,69.78
2023-02-21T19:54:24.527Z,56.90
2023-02-21T19:56:52.997Z,60.65
2023-02-21T19:59:20.987Z,69.45
2023-02-21T20:01:49.108Z,63.00
2023-02-21T20:04:18.749Z,63.58
2023-02-21T20:06:48.418Z,57.53
2023-02-21T20:09:17.402Z,80.07
2023-02-21T20:11:45.406Z,70.90
2023-02-21T20:14:17.731Z,74.65
2023-02-21T20:16:46.811Z,79.55
2023-02-21T20:19:15.561Z,76.32
2023-02-21T20:21:43.548Z,64.55
2023-02-21T20:24:11.956Z,59.05
2023-02-21T20:26:40.529Z,61.75
2023-02-21T20:29:08.875Z,72.88
2023-02-21T20:31:38.859Z,87.65
2023-02-21T20:34:07.119Z,78.40
2023-02-21T20:36:38.643Z,80.07
2023-02-21T20:39:09.551Z,74.32
2023-02-21T20:41:40.646Z,100.43
2023-02-21T20:44:08.638Z,75.50
2023-02-21T20:46:38.508Z,78.85
2023-02-21T20:49:07.458Z,88.63
2023-02-21T20:51:39.338Z,89.10
2023-02-21T20:54:11.339Z,90.95
2023-02-21T20:56:42.390Z,87.80
2023-02-21T20:59:18.086Z,87.80
2023-02-21T21:01:49.688Z,84.78
2023-02-21T21:04:35.378Z,84.55
2023-02-21T21:07:09.814Z,87.80
2023-02-21T21:09:38.859Z,90.68
2023-02-21T21:12:10.784Z,83.70
2023-02-21T21:14:43.239Z,91.40
2023-02-21T21:17:16.680Z,82.43
2023-02-21T21:19:48.051Z,164.50
2023-02-21T21:22:19.107Z,94.00
2023-02-21T21:24:48.117Z,90.32
2023-02-21T21:27:16.921Z,86.40
2023-02-21T21:29:46.064Z,75.95
2023-02-21T21:32:20.124Z,74.97
2023-02-21T21:34:51.241Z,78.93
2023-02-21T21:37:23.022Z,87.45
2023-02-21T21:39:55.660Z,84.65
2023-02-21T21:42:28.246Z,69.97
2023-02-21T21:44:57.589Z,59.97
2023-02-21T21:47:28.705Z,71.75
2023-02-21T21:49:56.893Z,66.90
2023-02-21T21:52:25.859Z,65.78
2023-02-21T21:54:55.454Z,66.25
2023-02-21T21:57:27.089Z,72.07
2023-02-21T21:59:55.845Z,64.32
2023-02-21T22:02:24.572Z,61.75
2023-02-21T22:04:53.574Z,59.53
2023-02-21T22:07:23.162Z,52.92
2023-02-21T22:09:51.580Z,55.28
2023-02-21T22:12:19.601Z,52.63
2023-02-21T22:14:50.005Z,51.08
2023-02-21T22:17:18.885Z,56.17
2023-02-21T22:19:47.912Z,67.82
2023-02-21T22:22:16.158Z,60.40
2023-02-21T22:24:44.763Z,60.55
2023-02-21T22:27:13.335Z,64.05
2023-02-21T22:29:41.435Z,61.05
2023-02-21T22:32:10.267Z,49.03
2023-02-21T22:34:39.397Z,52.80
2023-02-21T22:37:10.313Z,52.85
2023-02-21T22:39:38.840Z,53.90
2023-02-21T22:42:08.981Z,50.25
2023-02-21T22:44:37.720Z,48.20
2023-02-21T22:47:05.840Z,60.70
2023-02-21T22:49:33.820Z,55.47
2023-02-21T22:52:04.189Z,53.72
2023-02-21T22:54:32.765Z,57.22
2023-02-21T22:57:02.857Z,44.30
2023-02-21T22:59:31.348Z,60.17
2023-02-21T23:02:00.048Z,59.28
2023-02-21T23:04:28.143Z,61.60
2023-02-21T23:06:58.151Z,61.92
2023-02-21T23:09:28.796Z,61.03
2023-02-21T23:12:00.885Z,58.75
2023-02-21T23:14:35.153Z,50.55
2023-02-21T23:17:03.441Z,44.13
2023-02-21T23:19:32.291Z,47.92
2023-02-21T23:22:01.546Z,44.13
2023-02-21T23:24:29.506Z,49.33
2023-02-21T23:26:57.485Z,59.85
2023-02-21T23:29:26.581Z,47.47
2023-02-21T23:32:09.910Z,45.67
2023-02-21T23:37:12.729Z,47.28
2023-02-21T23:39:42.074Z,46.65
2023-02-21T23:42:11.247Z,43.15
2023-02-21T23:44:39.751Z,46.17
2023-02-21T23:47:08.892Z,50.78
2023-02-21T23:49:44.293Z,49.97
2023-02-21T23:52:12.678Z,50.83
2023-02-21T23:54:40.684Z,52.28
2023-02-21T23:57:08.623Z,53.17
2023-02-21T23:59:36.657Z,55.58
